Flight Track Log - Related Links

Times and Time Zones

All times are in EDT time to prevent confusion due to time zone crossing. See the D-ABTH flight status page for this flight to view local times or setup timezone preferences in your user account.


Time Position Orientation Groundspeed Altitude Reporting Facility
EDT Latitude Longitude Course Direction KTS MPH feet Rate Location/Type
Sat 05:37:52 PM 41.9690 -87.9190 270° West 166 191 600  Level FlightAware ADS-B
Sat 05:38:22 PM 41.9700 -87.9480 273° West 165 190 1,300 1,333 Climbing FlightAware ADS-B
Sat 05:38:37 PM 41.9780 -87.9610 310° West 174 200 1,600 1,440 Climbing FlightAware ADS-B
Sat 05:38:47 PM 41.9850 -87.9640 342° North 176 203 1,900 1,350 Climbing FlightAware ADS-B
Sat 05:39:17 PM 42.0090 -87.9480 26° Northeast 208 239 2,500 1,400 Climbing FlightAware ADS-B
Sat 05:39:47 PM 42.0310 -87.9210 42° Northeast 227 261 3,300 1,527 Climbing FlightAware ADS-B
Sat 05:40:12 PM 42.0530 -87.8950 41° Northeast 246 283 3,900 1,200 Climbing FlightAware ADS-B
Sat 05:40:42 PM 42.0800 -87.8640 40° Northeast 272 313 4,400 655 Climbing FlightAware ADS-B
Sat 05:41:07 PM 42.1020 -87.8390 40° Northeast 281 323 4,500 1,560 Climbing FlightAware ADS-B
Sat 05:41:32 PM 42.1300 -87.8050 42° Northeast 288 331 5,700 2,700 Climbing FlightAware ADS-B
Sat 05:42:07 PM 42.1640 -87.7640 42° Northeast 292 336 7,200 2,500 Climbing FlightAware ADS-B
Sat 05:42:32 PM 42.1820 -87.7280 56° Northeast 301 346 8,200 2,400 Climbing FlightAware ADS-B
Sat 05:42:47 PM 42.1880 -87.6990 74° East 307 353 8,800 2,267 Climbing FlightAware ADS-B
Sat 05:43:17 PM 42.1950 -87.6470 80° East 309 356 9,900 2,143 Climbing FlightAware ADS-B
Sat 05:43:57 PM 42.2080 -87.5610 78° East 328 377 11,300 1,725 Climbing FlightAware ADS-B
Sat 05:44:37 PM 42.2200 -87.4790 79° East 360 414 12,200 1,129 Climbing FlightAware ADS-B
Sat 05:45:22 PM 42.2340 -87.3810 79° East 403 464 12,900 1,482 Climbing FlightAware ADS-B
Sat 05:46:02 PM 42.2490 -87.2760 79° East 420 483 14,300 2,329 Climbing FlightAware ADS-B
Sat 05:46:47 PM 42.2670 -87.1490 79° East 444 511 16,200 2,400 Climbing FlightAware ADS-B
Sat 05:47:27 PM 42.2800 -87.0350 81° East 468 539 17,700 2,259 Climbing FlightAware ADS-B
Sat 05:48:12 PM 42.2860 -86.9010 86° East 485 558 19,400 2,133 Climbing FlightAware ADS-B
Sat 05:48:57 PM 42.2920 -86.7630 87° East 501 577 20,900 2,118 Climbing FlightAware ADS-B
Sat 05:49:37 PM 42.2960 -86.6360 88° East 512 589 22,400 2,100 Climbing FlightAware ADS-B
Sat 05:50:17 PM 42.3010 -86.5100 87° East 524 603 23,700 1,835 Climbing FlightAware ADS-B
Sat 05:51:02 PM 42.3060 -86.3630 87° East 536 617 25,000 1,765 Climbing FlightAware ADS-B
Sat 05:51:42 PM 42.3110 -86.2210 87° East 548 631 26,200 1,694 Climbing FlightAware ADS-B
Sat 05:52:27 PM 42.3150 -86.0690 88° East 559 643 27,400 1,553 Climbing FlightAware ADS-B
Sat 05:53:07 PM 42.3140 -85.9290 91° East 568 654 28,400 1,875 Climbing FlightAware ADS-B
Sat 05:53:47 PM 42.3120 -85.7870 91° East 564 649 29,900 1,906 Climbing FlightAware ADS-B
Sat 05:54:32 PM 42.3100 -85.6270 91° East 565 650 31,100 1,624 Climbing FlightAware ADS-B
Sat 05:55:12 PM 42.3080 -85.4850 91° East 564 649 32,200 1,341 Climbing FlightAware ADS-B
Sat 05:55:57 PM 42.3060 -85.3310 91° East 567 652 33,000 565 Climbing FlightAware ADS-B
Sat 05:56:37 PM 42.3030 -85.1830 92° East 566 651 33,000  Level FlightAware ADS-B
Sat 05:57:17 PM 42.3000 -85.0500 92° East 563 648 33,000  Level FlightAware ADS-B
Sat 05:58:02 PM 42.2970 -84.8880 91° East 560 644 33,000  Level FlightAware ADS-B
Sat 05:58:37 PM 42.2940 -84.7720 92° East 559 643 33,000  Level FlightAware ADS-B
Sat 05:59:22 PM 42.2900 -84.6120 92° East 558 642 33,000  Level FlightAware ADS-B
Sat 06:00:07 PM 42.2910 -84.4560 89° East 557 641 33,000  Level FlightAware ADS-B
Sat 06:00:47 PM 42.3070 -84.3210 81° East 554 638 33,000  Level FlightAware ADS-B
Sat 06:01:32 PM 42.3280 -84.1760 79° East 551 634 33,000  Level FlightAware ADS-B
Sat 06:02:07 PM 42.3450 -84.0550 79° East 550 633 33,000  Level FlightAware ADS-B
Sat 06:02:57 PM 42.3700 -83.8800 79° East 551 634 33,000  Level FlightAware ADS-B
Sat 06:03:37 PM 42.3880 -83.7470 80° East 552 635 33,000  Level FlightAware ADS-B
Sat 06:04:22 PM 42.4090 -83.6040 79° East 553 636 33,000  Level FlightAware ADS-B
Sat 06:04:57 PM 42.4270 -83.5070 76° East 554 638 33,000  Level FlightAware ADS-B
Sat 06:05:42 PM 42.4670 -83.3590 70° East 557 641 33,000  Level FlightAware ADS-B
Sat 06:06:17 PM 42.4980 -83.2530 68° East 558 642 33,000  Level FlightAware ADS-B
Sat 06:07:07 PM 42.5450 -83.0850 69° East 559 643 33,000  Level FlightAware ADS-B
Sat 06:07:47 PM 42.5810 -82.9520 70° East 559 643 33,000  Level FlightAware ADS-B
Sat 06:08:32 PM 42.6200 -82.8040 70° East 557 641 33,000  Level FlightAware ADS-B
Sat 06:09:12 PM 42.6570 -82.6600 71° East 557 641 33,000  Level FlightAware ADS-B
Sat 06:09:47 PM 42.6870 -82.5460 70° East 558 642 33,000  Level FlightAware ADS-B
Sat 06:10:32 PM 42.7220 -82.4090 71° East 557 641 33,000  Level FlightAware ADS-B
Sat 06:11:32 PM 42.7720 -82.2140 71° East 557 641 33,000  Level FlightAware ADS-B
Sat 06:12:12 PM 42.8080 -82.0740 71° East 555 639 33,000  Level FlightAware ADS-B
Sat 06:12:57 PM 42.8460 -81.9220 71° East 555 639 33,000  Level FlightAware ADS-B
Sat 06:13:37 PM 42.8770 -81.7980 71° East 555 639 33,000  Level FlightAware ADS-B
Sat 06:14:22 PM 42.9180 -81.6350 71° East 555 639 33,000  Level FlightAware ADS-B
Sat 06:15:02 PM 42.9530 -81.4930 71° East 557 641 33,000  Level FlightAware ADS-B
Sat 06:15:42 PM 42.9860 -81.3600 71° East 557 641 33,000  Level FlightAware ADS-B
Sat 06:16:27 PM 43.0230 -81.2110 71° East 558 642 33,000  Level FlightAware ADS-B
Sat 06:17:07 PM 43.0650 -81.0800 66° East 557 641 33,000  Level FlightAware ADS-B
Sat 06:17:52 PM 43.1200 -80.9480 60° Northeast 556 640 33,000  Level FlightAware ADS-B
Sat 06:18:32 PM 43.1720 -80.8260 60° Northeast 556 640 33,000  Level FlightAware ADS-B
Sat 06:19:12 PM 43.2260 -80.6990 60° Northeast 557 641 33,000  Level FlightAware ADS-B
Sat 06:19:57 PM 43.2830 -80.5610 60° Northeast 557 641 33,000  Level FlightAware ADS-B
Sat 06:20:37 PM 43.3330 -80.4390 61° Northeast 557 641 33,000  Level FlightAware ADS-B
Sat 06:21:22 PM 43.3860 -80.3090 61° Northeast 557 641 33,000  Level FlightAware ADS-B
Sat 06:22:02 PM 43.4400 -80.1750 61° Northeast 557 641 33,000  Level FlightAware ADS-B
Sat 06:22:42 PM 43.4890 -80.0540 61° Northeast 557 641 33,000  Level FlightAware ADS-B
Sat 06:23:27 PM 43.5460 -79.9130 61° Northeast 557 641 33,000  Level FlightAware ADS-B
Sat 06:24:07 PM 43.5950 -79.7900 61° Northeast 557 641 33,000  Level FlightAware ADS-B
Sat 06:24:52 PM 43.6500 -79.6480 62° Northeast 556 640 33,000  Level FlightAware ADS-B
Sat 06:25:32 PM 43.6910 -79.5180 66° East 557 641 33,000  Level FlightAware ADS-B
Sat 06:26:17 PM 43.7330 -79.3770 68° East 558 642 33,000  Level FlightAware ADS-B
Sat 06:26:57 PM 43.7740 -79.2370 68° East 557 641 33,000  Level FlightAware ADS-B
Sat 06:27:37 PM 43.8120 -79.1050 68° East 558 642 33,000  Level FlightAware ADS-B
Sat 06:28:22 PM 43.8550 -78.9550 68° East 560 644 33,000  Level FlightAware ADS-B
Sat 06:29:02 PM 43.8930 -78.8230 68° East 563 648 33,000  Level FlightAware ADS-B
Sat 06:29:47 PM 43.9360 -78.6730 68° East 564 649 33,000  Level FlightAware ADS-B
Sat 06:30:27 PM 43.9740 -78.5380 69° East 566 651 33,000  Level FlightAware ADS-B
Sat 06:31:07 PM 44.0120 -78.4070 68° East 570 656 33,000  Level FlightAware ADS-B
Sat 06:31:52 PM 44.0670 -78.2540 63° Northeast 573 659 33,000  Level FlightAware ADS-B
Sat 06:32:32 PM 44.1120 -78.1350 62° Northeast 573 659 33,000  Level FlightAware ADS-B
Sat 06:33:17 PM 44.1720 -77.9780 62° Northeast 572 658 33,000  Level FlightAware ADS-B
Sat 06:33:57 PM 44.2160 -77.8610 62° Northeast 573 659 33,000  Level FlightAware ADS-B
Sat 06:34:37 PM 44.2710 -77.7180 62° Northeast 571 657 33,000  Level FlightAware ADS-B
Sat 06:35:22 PM 44.3270 -77.5740 61° Northeast 571 657 33,000  Level FlightAware ADS-B
Sat 06:36:02 PM 44.3790 -77.4540 59° Northeast 571 657 33,000  Level FlightAware ADS-B
Sat 06:36:47 PM 44.4450 -77.3050 58° Northeast 571 657 33,000  Level FlightAware ADS-B
Sat 06:37:22 PM 44.4940 -77.1970 58° Northeast 570 656 33,000  Level FlightAware ADS-B
Sat 06:38:07 PM 44.5550 -77.0600 58° Northeast 571 657 33,000  Level FlightAware ADS-B
Sat 06:38:47 PM 44.6170 -76.9200 58° Northeast 568 654 33,000  Level FlightAware ADS-B
Sat 06:39:52 PM 44.7070 -76.7150 58° Northeast 570 656 33,000  Level FlightAware ADS-B
Sat 06:41:27 PM 44.8340 -76.4250 58° Northeast 574 661 33,000  Level FlightAware ADS-B
Sat 06:42:07 PM 44.8850 -76.3070 59° Northeast 575 662 33,000  Level FlightAware ADS-B
Sat 06:42:47 PM 44.9350 -76.1620 64° Northeast 578 665 33,000  Level FlightAware ADS-B
Sat 06:43:27 PM 44.9720 -76.0200 70° East 578 665 33,000  Level FlightAware ADS-B
Sat 06:44:12 PM 45.0140 -75.8460 71° East 579 666 33,000  Level FlightAware ADS-B
Sat 06:44:52 PM 45.0490 -75.6980 71° East 579 666 33,000  Level FlightAware ADS-B
Sat 06:45:37 PM 45.0860 -75.5410 71° East 581 669 33,000  Level FlightAware ADS-B
Sat 06:46:17 PM 45.1210 -75.3950 71° East 582 670 33,000  Level FlightAware ADS-B
Sat 06:47:02 PM 45.1590 -75.2320 72° East 583 671 33,000  Level FlightAware ADS-B
Sat 06:47:42 PM 45.1940 -75.0850 71° East 583 671 33,000  Level FlightAware ADS-B
Sat 06:48:22 PM 45.2270 -74.9450 71° East 584 672 33,000  Level FlightAware ADS-B
Sat 06:49:07 PM 45.2860 -74.7910 61° Northeast 601 692 33,000  Level FlightAware ADS-B
Sat 06:49:47 PM 45.3590 -74.6770 48° Northeast 604 695 33,000  Level FlightAware ADS-B
Sat 06:50:32 PM 45.4490 -74.5430 46° Northeast 603 694 33,000  Level FlightAware ADS-B
Sat 06:51:12 PM 45.5250 -74.4280 47° Northeast 602 693 33,000  Level FlightAware ADS-B
Sat 06:51:57 PM 45.6080 -74.2990 47° Northeast 600 690 33,000  Level FlightAware ADS-B
Sat 06:52:37 PM 45.6780 -74.1790 50° Northeast 600 690 33,000  Level FlightAware ADS-B
Sat 06:53:17 PM 45.7500 -74.0550 50° Northeast 600 690 33,000  Level FlightAware ADS-B
Sat 06:54:02 PM 45.8290 -73.9190 50° Northeast 599 689 33,000  Level FlightAware ADS-B
Sat 06:54:42 PM 45.9030 -73.7920 50° Northeast 600 690 33,000  Level FlightAware ADS-B
Sat 06:55:27 PM 45.9800 -73.6610 50° Northeast 599 689 33,000  Level FlightAware ADS-B
Sat 06:56:07 PM 46.0520 -73.5360 50° Northeast 598 688 33,000  Level FlightAware ADS-B
Sat 06:56:47 PM 46.1230 -73.4140 50° Northeast 599 689 33,000  Level FlightAware ADS-B
Sat 06:57:32 PM 46.2030 -73.2740 50° Northeast 598 688 33,000  Level FlightAware ADS-B
Sat 06:58:12 PM 46.2740 -73.1490 51° Northeast 598 688 33,000  Level FlightAware ADS-B
Sat 06:58:57 PM 46.3500 -73.0120 51° Northeast 598 688 33,000  Level FlightAware ADS-B
Sat 06:59:37 PM 46.4190 -72.8890 51° Northeast 597 687 33,000  Level FlightAware ADS-B
Sat 07:00:17 PM 46.4880 -72.7660 51° Northeast 595 685 33,000  Level FlightAware ADS-B
Sat 07:01:02 PM 46.5680 -72.6210 51° Northeast 593 682 33,000  Level FlightAware ADS-B
Sat 07:01:42 PM 46.6360 -72.4970 51° Northeast 592 681 33,000  Level FlightAware ADS-B
Sat 07:02:27 PM 46.7120 -72.3600 51° Northeast 592 681 33,000  Level FlightAware ADS-B
Sat 07:02:57 PM 46.7620 -72.2680 52° Northeast 593 682 33,000  Level FlightAware ADS-B
Sat 07:03:14 PM 46.7667 -72.2500 52° Northeast 590 679 33,000  Level Moncton Center
Sat 07:03:43 PM 46.8333 -72.1167 54° Northeast 590 679 33,000  Level Montreal Center
Sat 07:04:43 PM 46.9333 -71.9333 51° Northeast 590 679 33,000  Level Montreal Center
Sat 07:05:43 PM 47.0333 -71.7333 54° Northeast 590 679 33,000  Level Montreal Center
Sat 07:06:43 PM 47.1333 -71.5500 51° Northeast 590 679 33,000  Level Montreal Center
Sat 07:07:43 PM 47.2333 -71.3500 54° Northeast 590 679 33,000  Level Montreal Center
Sat 07:08:43 PM 47.3333 -71.1667 51° Northeast 590 679 33,000  Level Montreal Center
Sat 07:09:43 PM 47.4333 -70.9833 51° Northeast 590 679 33,000  Level Montreal Center
Sat 07:15:07 PM 47.9860 -69.9290 51° Northeast 603 694 33,000  Level FlightAware ADS-B
Sat 07:15:52 PM 48.0580 -69.7840 53° Northeast 604 695 33,000  Level FlightAware ADS-B
Sat 07:16:37 PM 48.1340 -69.6320 53° Northeast 605 696 33,000  Level FlightAware ADS-B
Sat 07:17:17 PM 48.1910 -69.5180 53° Northeast 605 696 33,000  Level FlightAware ADS-B
Sat 07:17:57 PM 48.2490 -69.4040 53° Northeast 605 696 33,000  Level FlightAware ADS-B
Sat 07:18:47 PM 48.3200 -69.2610 53° Northeast 605 696 33,000  Level FlightAware ADS-B
Sat 07:19:27 PM 48.3770 -69.1470 53° Northeast 605 696 33,000  Level FlightAware ADS-B
Sat 07:20:07 PM 48.4350 -69.0330 52° Northeast 605 696 33,000  Level FlightAware ADS-B
Sat 07:20:47 PM 48.4920 -68.9180 53° Northeast 605 696 33,000  Level FlightAware ADS-B
Sat 07:21:27 PM 48.5490 -68.8030 53° Northeast 605 696 33,000  Level FlightAware ADS-B
Sat 07:22:17 PM 48.6210 -68.6590 53° Northeast 605 696 33,000  Level FlightAware ADS-B
Sat 07:22:57 PM 48.6780 -68.5440 53° Northeast 605 696 33,000  Level FlightAware ADS-B
Sat 07:23:37 PM 48.7350 -68.4290 53° Northeast 605 696 33,000  Level FlightAware ADS-B
Sat 07:24:17 PM 48.7930 -68.3140 53° Northeast 605 696 33,000  Level FlightAware ADS-B
Sat 07:24:57 PM 48.8500 -68.1980 53° Northeast 605 696 33,000  Level FlightAware ADS-B
Sat 07:25:47 PM 48.9220 -68.0540 53° Northeast 605 696 33,000  Level FlightAware ADS-B
Sat 07:26:10 PM 49.0667 -67.6333 53° Northeast 620 713 33,000  Level Gander Center
Sat 07:26:43 PM 49.1333 -67.4667 59° Northeast 610 702 33,000  Level Montreal Center
Sat 07:27:43 PM 49.2333 -67.2833 50° Northeast 620 713 33,000  Level Montreal Center
Sat 07:28:43 PM 49.3333 -67.0500 57° Northeast 620 713 33,000  Level Montreal Center
Sat 07:29:43 PM 49.4167 -66.8333 59° Northeast 610 702 33,000  Level Montreal Center
Sat 07:30:43 PM 49.5333 -66.6000 52° Northeast 620 713 33,000  Level Montreal Center
Sat 07:31:43 PM 49.6167 -66.4000 57° Northeast 620 713 33,000  Level Montreal Center
Sat 07:32:14 PM 49.6667 -66.3167 47° Northeast 620 713 33,000  Level Moncton Center
Sat 07:33:14 PM 49.7667 -66.0833 56° Northeast 630 725 33,000  Level Moncton Center
Sat 07:33:43 PM 49.8167 -65.9333 63° Northeast 630 725 33,000  Level Montreal Center
Sat 07:34:14 PM 49.8667 -65.8500 47° Northeast 630 725 33,000  Level Moncton Center
Sat 07:34:43 PM 49.9167 -65.7333 56° Northeast 630 725 33,000  Level Montreal Center
Sat 07:35:43 PM 50.0167 -65.5000 56° Northeast 630 725 33,000  Level Montreal Center
Sat 07:36:43 PM 50.1000 -65.2667 61° Northeast 630 725 33,000  Level Montreal Center
Sat 07:37:43 PM 50.2000 -65.0333 56° Northeast 640 736 33,000  Level Montreal Center
Sat 07:38:43 PM 50.3000 -64.8000 56° Northeast 640 736 33,000  Level Montreal Center
Sat 07:39:43 PM 50.4167 -64.5500 54° Northeast 650 748 33,000  Level Montreal Center
Sat 07:40:14 PM 50.4500 -64.4833 52° Northeast 650 748 33,000  Level Moncton Center
Sat 07:41:14 PM 50.5500 -64.2167 59° Northeast 660 760 33,000  Level Moncton Center
Sat 07:42:14 PM 50.6500 -63.9667 58° Northeast 670 771 33,000  Level Moncton Center
Sat 07:43:14 PM 50.7667 -63.7167 54° Northeast 690 794 33,000  Level Moncton Center
Sat 07:44:14 PM 50.8667 -63.4500 59° Northeast 700 806 33,000  Level Moncton Center
Sat 07:45:14 PM 50.9500 -63.2000 62° Northeast 690 794 33,000  Level Moncton Center
Sat 07:46:14 PM 51.0500 -62.9333 59° Northeast 680 783 33,000  Level Moncton Center
Sat 07:47:14 PM 51.1500 -62.6833 57° Northeast 670 771 33,000  Level Moncton Center
Sat 07:48:14 PM 51.2500 -62.4167 59° Northeast 670 771 33,000  Level Moncton Center
Sat 07:49:14 PM 51.3500 -62.1667 57° Northeast 670 771 33,000  Level Moncton Center
Sat 07:50:14 PM 51.4333 -61.9000 63° Northeast 670 771 33,000  Level Moncton Center
Sat 07:51:14 PM 51.5333 -61.6500 57° Northeast 660 760 33,000  Level Moncton Center
Sat 07:52:14 PM 51.6333 -61.3833 59° Northeast 660 760 33,000  Level Moncton Center
Sat 07:53:14 PM 51.7167 -61.1333 62° Northeast 660 760 33,000  Level Moncton Center
Sat 07:54:14 PM 51.8167 -60.8833 57° Northeast 660 760 33,000  Level Moncton Center
Sat 07:55:14 PM 51.9167 -60.6333 57° Northeast 660 760 33,000 200 Level Moncton Center
Sat 07:56:14 PM 51.9833 -60.3833 67° East 650 748 33,400 1,000 Climbing Moncton Center
Sat 07:57:14 PM 52.1000 -60.1167 54° Northeast 650 748 35,000 800 Climbing Moncton Center
Sat 07:58:14 PM 52.1833 -59.8667 61° Northeast 650 748 35,000  Level Moncton Center
Sat 07:59:14 PM 52.2667 -59.6167 61° Northeast 650 748 35,000  Level Moncton Center
Sat 08:00:14 PM 52.3667 -59.3833 55° Northeast 650 748 35,000  Level Moncton Center
Sat 08:01:14 PM 52.4500 -59.1000 64° Northeast 650 748 35,000  Level Moncton Center
Sat 08:02:14 PM 52.5500 -58.8667 55° Northeast 640 736 35,000  Level Moncton Center
Sat 08:03:10 PM 52.6333 -58.6167 61° Northeast 640 736 35,000  Level Gander Center
Sat 08:04:10 PM 52.7333 -58.3833 55° Northeast 640 736 35,000  Level Gander Center
Sat 08:05:10 PM 52.8167 -58.1000 64° Northeast 640 736 35,000  Level Gander Center
Sat 08:06:10 PM 52.9000 -57.8667 59° Northeast 640 736 35,000  Level Gander Center
Sat 08:07:10 PM 53.0000 -57.5833 60° Northeast 640 736 35,000  Level Gander Center
Sat 08:08:10 PM 53.0833 -57.3500 59° Northeast 640 736 35,000  Level Gander Center
Sat 08:09:10 PM 53.1500 -57.1000 66° East 640 736 35,000  Level Gander Center
Sat 08:10:14 PM 53.2500 -56.8167 59° Northeast 640 736 35,000  Level Moncton Center
Sat 08:11:14 PM 53.3333 -56.5500 62° Northeast 630 725 35,000  Level Moncton Center
Sat 08:12:14 PM 53.4167 -56.2833 62° Northeast 630 725 35,000  Level Moncton Center
Sat 08:13:14 PM 53.5000 -56.0333 61° Northeast 630 725 35,000  Level Moncton Center
Sat 08:14:14 PM 53.5833 -55.7667 62° Northeast 620 713 35,000  Level Moncton Center
Sat 08:15:14 PM 53.6667 -55.5167 61° Northeast 620 713 35,000  Level Moncton Center
Sat 08:16:14 PM 53.7500 -55.2833 59° Northeast 620 713 35,000  Level Moncton Center
Sat 08:17:14 PM 53.8333 -55.0000 63° Northeast 630 725 35,000  Level Moncton Center
Sat 08:18:14 PM 53.9000 -54.7333 67° East 630 725 35,000  Level Moncton Center
Sat 08:19:14 PM 53.9833 -54.4667 62° Northeast 630 725 35,000  Level Moncton Center
Sat 08:20:14 PM 54.0500 -54.2167 65° Northeast 630 725 35,000  Level Moncton Center
Sat 08:21:10 PM 54.1000 -53.9500 72° East 630 725 35,000  Level Gander Center
Sat 08:22:10 PM 54.1833 -53.6833 62° Northeast 630 725 35,000  Level Gander Center
Sat 08:23:10 PM 54.2333 -53.3833 74° East 630 725 35,000  Level Gander Center
Sat 08:24:10 PM 54.3000 -53.1167 67° East 620 713 35,000  Level Gander Center
Sat 08:25:10 PM 54.3667 -52.8333 68° East 620 713 35,000  Level Gander Center
Sat 08:26:10 PM 54.4167 -52.5667 72° East 620 713 35,000  Level Gander Center
Sat 08:27:10 PM 54.4833 -52.2833 68° East 620 713 35,000  Level Gander Center
Sat 08:28:10 PM 54.5500 -52.0167 67° East 620 713 35,000  Level Gander Center
Sat 08:29:10 PM 54.6000 -51.7500 72° East 620 713 35,000 -250 Level Gander Center
Sat 08:30:10 PM 54.6833 -51.4667 63° Northeast 620 713 34,500  Descending Gander Center
Sat 08:32:10 PM 54.7833 -50.9167 72° East 620 713 35,000 167 Climbing Gander Center
Sat 08:33:10 PM 54.8500 -50.6333 68° East 620 713 35,000  Level Gander Center
Sat 08:34:10 PM 54.9000 -50.3500 73° East 620 713 35,000  Level Gander Center
Sat 08:36:00 PM 55.0136 -49.9044 76° East  Level FlightAware Approximate
Sat 08:43:00 PM 55.2571 -48.0846 76° East  Level FlightAware Approximate
Sat 08:44:00 PM 55.2897 -47.8228 78° East  Level FlightAware Approximate
Sat 08:45:00 PM 55.3217 -47.5606 78° East  Level FlightAware Approximate
Sat 08:46:00 PM 55.3531 -47.2980 78° East  Level FlightAware Approximate
Sat 08:47:00 PM 55.3832 -47.0347 79° East  Level FlightAware Approximate
Sat 08:48:00 PM 55.4122 -46.7708 79° East  Level FlightAware Approximate
Sat 08:49:00 PM 55.4405 -46.5065 79° East  Level FlightAware Approximate
Sat 08:50:00 PM 55.4683 -46.2419 79° East  Level FlightAware Approximate
Sat 08:51:00 PM 55.4955 -45.9769 80° East  Level FlightAware Approximate
Sat 08:52:00 PM 55.5226 -45.7116 79° East  Level FlightAware Approximate
Sat 08:53:00 PM 55.5509 -45.4466 79° East  Level FlightAware Approximate
Sat 08:54:00 PM 55.5787 -45.1812 79° East  Level FlightAware Approximate
Sat 08:55:00 PM 55.6059 -44.9154 80° East  Level FlightAware Approximate
Sat 08:56:00 PM 55.6325 -44.6493 80° East  Level FlightAware Approximate
Sat 08:57:00 PM 55.6585 -44.3828 80° East  Level FlightAware Approximate
Sat 08:58:00 PM 55.6839 -44.1159 80° East  Level FlightAware Approximate
Sat 08:59:00 PM 55.7088 -43.8487 81° East  Level FlightAware Approximate
Sat 09:00:00 PM 55.7331 -43.5812 81° East  Level FlightAware Approximate
Sat 09:01:00 PM 55.7568 -43.3133 81° East  Level FlightAware Approximate
Sat 09:02:00 PM 55.7799 -43.0451 81° East  Level FlightAware Approximate
Sat 09:03:00 PM 55.8025 -42.7766 81° East  Level FlightAware Approximate
Sat 09:04:00 PM 55.8244 -42.5078 82° East  Level FlightAware Approximate
Sat 09:05:00 PM 55.8458 -42.2387 82° East  Level FlightAware Approximate
Sat 09:06:00 PM 55.8666 -41.9693 82° East  Level FlightAware Approximate
Sat 09:07:00 PM 55.8867 -41.6996 82° East  Level FlightAware Approximate
Sat 09:08:00 PM 55.9063 -41.4296 83° East  Level FlightAware Approximate
Sat 09:09:00 PM 55.9254 -41.1594 83° East  Level FlightAware Approximate
Sat 09:10:00 PM 55.9438 -40.8889 83° East  Level FlightAware Approximate
Sat 09:11:00 PM 55.9616 -40.6182 83° East  Level FlightAware Approximate
Sat 09:12:00 PM 55.9788 -40.3472 83° East  Level FlightAware Approximate
Sat 09:13:00 PM 55.9954 -40.0760 84° East  Level FlightAware Approximate
Sat 09:14:00 PM 56.0078 -39.8040 86° East  Level FlightAware Approximate
Sat 09:15:00 PM 56.0181 -39.5315 86° East  Level FlightAware Approximate
Sat 09:16:00 PM 56.0278 -39.2590 86° East  Level FlightAware Approximate
Sat 09:17:00 PM 56.0369 -38.9863 86° East  Level FlightAware Approximate
Sat 09:18:00 PM 56.0454 -38.7135 87° East  Level FlightAware Approximate
Sat 09:19:00 PM 56.0533 -38.4406 87° East  Level FlightAware Approximate
Sat 09:20:00 PM 56.0606 -38.1675 87° East  Level FlightAware Approximate
Sat 09:21:00 PM 56.0673 -37.8944 87° East  Level FlightAware Approximate
Sat 09:22:00 PM 56.0734 -37.6212 88° East  Level FlightAware Approximate
Sat 09:23:00 PM 56.0789 -37.3479 88° East  Level FlightAware Approximate
Sat 09:24:00 PM 56.0838 -37.0745 88° East  Level FlightAware Approximate
Sat 09:25:00 PM 56.0881 -36.8011 88° East  Level FlightAware Approximate
Sat 09:26:00 PM 56.0918 -36.5276 89° East  Level FlightAware Approximate
Sat 09:27:00 PM 56.0948 -36.2540 89° East  Level FlightAware Approximate
Sat 09:28:00 PM 56.0973 -35.9804 89° East  Level FlightAware Approximate
Sat 09:29:00 PM 56.0992 -35.7068 89° East  Level FlightAware Approximate
Sat 09:30:00 PM 56.1004 -35.4332 89° East  Level FlightAware Approximate
Sat 09:31:00 PM 56.1011 -35.1595 90° East  Level FlightAware Approximate
Sat 09:32:00 PM 56.1012 -34.8859 90° East  Level FlightAware Approximate
Sat 09:33:00 PM 56.1006 -34.6122 90° East  Level FlightAware Approximate
Sat 09:34:00 PM 56.0994 -34.3386 90° East  Level FlightAware Approximate
Sat 09:35:00 PM 56.0977 -34.0650 91° East  Level FlightAware Approximate
Sat 09:36:00 PM 56.0953 -33.7914 91° East  Level FlightAware Approximate
Sat 09:37:00 PM 56.0923 -33.5178 91° East  Level FlightAware Approximate
Sat 09:38:00 PM 56.0887 -33.2443 91° East  Level FlightAware Approximate
Sat 09:39:00 PM 56.0846 -32.9709 91° East  Level FlightAware Approximate
Sat 09:40:00 PM 56.0798 -32.6975 92° East  Level FlightAware Approximate
Sat 09:41:00 PM 56.0744 -32.4241 92° East  Level FlightAware Approximate
Sat 09:42:00 PM 56.0684 -32.1509 92° East  Level FlightAware Approximate
Sat 09:43:00 PM 56.0618 -31.8778 92° East  Level FlightAware Approximate
Sat 09:44:00 PM 56.0546 -31.6047 93° East  Level FlightAware Approximate
Sat 09:45:00 PM 56.0468 -31.3318 93° East  Level FlightAware Approximate
Sat 09:46:00 PM 56.0384 -31.0589 93° East  Level FlightAware Approximate
Sat 09:47:00 PM 56.0294 -30.7862 93° East  Level FlightAware Approximate
Sat 09:48:00 PM 56.0197 -30.5137 93° East  Level FlightAware Approximate
Sat 09:49:00 PM 56.0095 -30.2412 94° East  Level FlightAware Approximate
Sat 09:50:00 PM 55.9982 -29.9690 96° East  Level FlightAware Approximate
Sat 09:51:00 PM 55.9823 -29.6976 96° East  Level FlightAware Approximate
Sat 09:52:00 PM 55.9657 -29.4265 96° East  Level FlightAware Approximate
Sat 09:53:00 PM 55.9486 -29.1556 96° East  Level FlightAware Approximate
Sat 09:54:00 PM 55.9308 -28.8849 97° East  Level FlightAware Approximate
Sat 09:55:00 PM 55.9125 -28.6145 97° East  Level FlightAware Approximate
Sat 09:56:00 PM 55.8936 -28.3443 97° East  Level FlightAware Approximate
Sat 09:57:00 PM 55.8740 -28.0744 97° East  Level FlightAware Approximate
Sat 09:58:00 PM 55.8539 -27.8048 97° East  Level FlightAware Approximate
Sat 09:59:00 PM 55.8332 -27.5355 98° East  Level FlightAware Approximate
Sat 10:00:00 PM 55.8120 -27.2665 98° East  Level FlightAware Approximate
Sat 10:01:00 PM 55.7901 -26.9977 98° East  Level FlightAware Approximate
Sat 10:02:00 PM 55.7676 -26.7293 98° East  Level FlightAware Approximate
Sat 10:03:00 PM 55.7446 -26.4611 99° East  Level FlightAware Approximate
Sat 10:04:00 PM 55.7210 -26.1933 99° East  Level FlightAware Approximate
Sat 10:05:00 PM 55.6968 -25.9259 99° East  Level FlightAware Approximate
Sat 10:06:00 PM 55.6720 -25.6587 99° East  Level FlightAware Approximate
Sat 10:07:00 PM 55.6466 -25.3919 99° East  Level FlightAware Approximate
Sat 10:08:00 PM 55.6207 -25.1255 100° East  Level FlightAware Approximate
Sat 10:09:00 PM 55.5942 -24.8594 100° East  Level FlightAware Approximate
Sat 10:10:00 PM 55.5671 -24.5937 100° East  Level FlightAware Approximate
Sat 10:11:00 PM 55.5394 -24.3283 100° East  Level FlightAware Approximate
Sat 10:12:00 PM 55.5112 -24.0633 101° East  Level FlightAware Approximate
Sat 10:13:00 PM 55.4823 -23.7987 101° East  Level FlightAware Approximate
Sat 10:14:00 PM 55.4530 -23.5345 101° East  Level FlightAware Approximate
Sat 10:15:00 PM 55.4230 -23.2707 101° East  Level FlightAware Approximate
Sat 10:16:00 PM 55.3925 -23.0073 101° East  Level FlightAware Approximate
Sat 10:17:00 PM 55.3614 -22.7443 102° East  Level FlightAware Approximate
Sat 10:18:00 PM 55.3298 -22.4817 102° East  Level FlightAware Approximate
Sat 10:19:00 PM 55.2976 -22.2195 102° East  Level FlightAware Approximate
Sat 10:20:00 PM 55.2648 -21.9578 102° East  Level FlightAware Approximate
Sat 10:21:00 PM 55.2314 -21.6965 103° East  Level FlightAware Approximate
Sat 10:22:00 PM 55.1976 -21.4357 103° East  Level FlightAware Approximate
Sat 10:23:00 PM 55.1631 -21.1753 103° East  Level FlightAware Approximate
Sat 10:24:00 PM 55.1281 -20.9153 103° East  Level FlightAware Approximate
Sat 10:25:00 PM 55.0926 -20.6558 103° East  Level FlightAware Approximate
Sat 10:26:00 PM 55.0565 -20.3968 104° East  Level FlightAware Approximate
Sat 10:27:00 PM 55.0199 -20.1382 104° East  Level FlightAware Approximate
Sat 10:28:00 PM 54.9889 -19.8779 99° East  Level FlightAware Approximate
Sat 10:29:00 PM 54.9645 -19.6154 99° East  Level FlightAware Approximate
Sat 10:30:00 PM 54.9396 -19.3531 99° East  Level FlightAware Approximate
Sat 10:31:00 PM 54.9141 -19.0913 100° East  Level FlightAware Approximate
Sat 10:32:00 PM 54.8881 -18.8297 100° East  Level FlightAware Approximate
Sat 10:33:00 PM 54.8615 -18.5685 100° East  Level FlightAware Approximate
Sat 10:34:00 PM 54.8343 -18.3076 100° East  Level FlightAware Approximate
Sat 10:35:00 PM 54.8056 -18.0379 100° East  Level FlightAware Approximate
Sat 10:36:00 PM 54.7763 -17.7686 101° East  Level FlightAware Approximate
Sat 10:37:00 PM 54.7464 -17.4996 101° East  Level FlightAware Approximate
Sat 10:38:00 PM 54.7159 -17.2311 101° East  Level FlightAware Approximate
Sat 10:39:00 PM 54.6848 -16.9629 101° East  Level FlightAware Approximate
Sat 10:40:00 PM 54.6531 -16.6952 101° East  Level FlightAware Approximate
Sat 10:41:00 PM 54.6209 -16.4279 102° East  Level FlightAware Approximate
Sat 10:42:00 PM 54.5880 -16.1610 102° East  Level FlightAware Approximate
Sat 10:42:17 PM 53.9360 -14.3040 102° East 552 635 35,000  Level FlightAware ADS-B
Sat 10:43:00 PM 54.5546 -15.8946 102° East  Level FlightAware Approximate
Sat 10:43:27 PM 53.9060 -13.9950 99° East 549 632 35,000  Level FlightAware ADS-B
Sat 10:45:22 PM 53.8570 -13.4990 99° East 553 636 36,000 503 Climbing FlightAware ADS-B
Sat 10:46:02 PM 53.8390 -13.3310 100° East 556 640 36,300 494 Climbing FlightAware ADS-B
Sat 10:46:47 PM 53.8180 -13.1320 100° East 561 646 36,700 494 Climbing FlightAware ADS-B
Sat 10:47:27 PM 53.8000 -12.9610 100° East 559 643 37,000 225 Climbing FlightAware ADS-B
Sat 10:48:07 PM 53.7820 -12.7880 100° East 552 635 37,000  Level FlightAware ADS-B
Sat 10:48:52 PM 53.7610 -12.6030 101° East 546 628 37,000  Level FlightAware ADS-B
Sat 10:49:32 PM 53.7430 -12.4390 100° East 543 625 37,000  Level FlightAware ADS-B
Sat 10:50:17 PM 53.7210 -12.2450 101° East 543 625 37,000  Level FlightAware ADS-B
Sat 10:50:57 PM 53.7030 -12.0850 101° East 542 624 37,000  Level FlightAware ADS-B
Sat 10:51:37 PM 53.6840 -11.9180 101° East 542 624 37,000  Level FlightAware ADS-B
Sat 10:52:22 PM 53.6610 -11.7270 101° East 543 625 37,000  Level FlightAware ADS-B
Sat 10:53:02 PM 53.6420 -11.5650 101° East 544 626 37,000  Level FlightAware ADS-B
Sat 10:53:47 PM 53.6200 -11.3790 101° East 543 625 37,000  Level FlightAware ADS-B
Sat 10:54:27 PM 53.5990 -11.2090 102° East 546 628 37,000  Level FlightAware ADS-B
Sat 10:55:07 PM 53.5790 -11.0450 102° East 545 627 37,000  Level FlightAware ADS-B
Sat 10:55:52 PM 53.5560 -10.8640 102° East 542 624 37,000  Level FlightAware ADS-B
Sat 10:56:32 PM 53.5350 -10.6950 102° East 540 621 37,000  Level FlightAware ADS-B
Sat 10:57:12 PM 53.5140 -10.5320 102° East 540 621 37,000  Level FlightAware ADS-B
Sat 10:57:57 PM 53.4900 -10.3470 102° East 540 621 37,000  Level FlightAware ADS-B
Sat 10:58:37 PM 53.4680 -10.1840 103° East 538 619 37,000  Level FlightAware ADS-B
Sat 10:59:22 PM 53.4440 -9.9990 102° East 537 618 37,000  Level FlightAware ADS-B
Sat 11:00:02 PM 53.4220 -9.8390 103° East 534 615 37,000  Level FlightAware ADS-B
Sat 11:00:42 PM 53.4000 -9.6760 103° East 534 615 37,000  Level FlightAware ADS-B
Sat 11:01:27 PM 53.3760 -9.4980 103° East 535 616 37,000  Level FlightAware ADS-B
Sat 11:02:07 PM 53.3520 -9.3320 104° East 535 616 37,000  Level FlightAware ADS-B
Sat 11:02:52 PM 53.3270 -9.1530 103° East 536 617 37,000 -1,084 Level FlightAware ADS-B
Sat 11:03:30 PM 53.3025 -8.9772 103° East 494 568 35,500  Descending FlightAware UK
Sat 11:03:32 PM 53.3040 -8.9920 103° East 536 617 37,000  Climbing FlightAware ADS-B
Sat 11:03:54 PM 53.2885 -8.8802 103° East 494 568 35,500 -2,250 Descending FlightAware UK
Sat 11:04:12 PM 53.2780 -8.8078 104° East 498 573 35,500 5,000 Level FlightAware UK
Sat 11:04:12 PM 53.2810 -8.8310 104° East 538 619 37,000  Climbing FlightAware ADS-B
Sat 11:04:30 PM 53.2674 -8.7349 104° East 500 575 35,500 -2,500 Descending FlightAware UK
Sat 11:04:48 PM 53.2571 -8.6632 104° East 498 573 35,500 4,091 Level FlightAware UK
Sat 11:04:52 PM 53.2570 -8.6670 104° East 536 617 37,000  Climbing FlightAware ADS-B
Sat 11:05:12 PM 53.2429 -8.5664 104° East 498 573 35,500 -2,368 Descending FlightAware UK
Sat 11:05:30 PM 53.2322 -8.4946 104° East 498 573 35,500 3,600 Level FlightAware UK
Sat 11:05:37 PM 53.2310 -8.4890 104° East 534 615 37,000  Climbing FlightAware ADS-B
Sat 11:05:54 PM 53.2179 -8.3988 104° East 496 571 35,500 -2,571 Descending FlightAware UK
Sat 11:06:12 PM 53.2071 -8.3269 104° East 496 571 35,500 3,913 Level FlightAware UK
Sat 11:06:17 PM 53.2070 -8.3280 104° East 531 611 37,000  Climbing FlightAware ADS-B
Sat 11:06:36 PM 53.1929 -8.2315 104° East 494 568 35,500 133 Descending FlightAware UK
Sat 11:07:02 PM 53.1800 -8.1460 104° East 529 609 37,100 200 Climbing FlightAware ADS-B
Sat 11:07:06 PM 53.1753 -8.1126 104° East 492 566 35,600 -5,250 Descending FlightAware UK
Sat 11:07:18 PM 53.1680 -8.0652 104° East 490 564 35,700 600 Climbing FlightAware UK
Sat 11:07:36 PM 53.1574 -7.9951 104° East 490 564 35,900 4,250 Climbing FlightAware UK
Sat 11:07:42 PM 53.1560 -7.9910 104° East 526 605 37,400 500 Climbing FlightAware ADS-B
Sat 11:08:00 PM 53.1430 -7.9012 104° East 490 564 36,100 -2,000 Descending FlightAware UK
Sat 11:08:18 PM 53.1322 -7.8310 104° East 490 564 36,200 3,778 Climbing FlightAware UK
Sat 11:08:27 PM 53.1290 -7.8160 104° East 527 606 37,800 500 Climbing FlightAware ADS-B
Sat 11:08:42 PM 53.1175 -7.7364 104° East 492 566 36,400 300 Descending FlightAware UK
Sat 11:09:07 PM 53.1050 -7.6570 104° East 530 610 38,000 200 Climbing FlightAware ADS-B
Sat 11:09:12 PM 53.0994 -7.6192 104° East 494 568 36,500 -3,913 Descending FlightAware UK
Sat 11:09:30 PM 53.0884 -7.5480 104° East 496 571 36,500 2,571 Level FlightAware UK
Sat 11:09:47 PM 53.0800 -7.5000 105° East 530 610 38,000  Climbing FlightAware ADS-B
Sat 11:09:48 PM 53.0772 -7.4772 105° East 500 575 36,500 -4,737 Descending FlightAware UK
Sat 11:10:06 PM 53.0657 -7.4057 105° East 496 571 36,500  Level FlightAware UK
Sat 11:10:24 PM 53.0546 -7.3353 105° East 492 566 36,500 3,462 Level FlightAware UK
Sat 11:10:32 PM 53.0520 -7.3220 105° East 526 605 38,000  Climbing FlightAware ADS-B
Sat 11:10:48 PM 53.0396 -7.2417 105° East 492 566 36,500 -2,647 Descending FlightAware UK
Sat 11:11:06 PM 53.0284 -7.1715 105° East 494 568 36,500 3,750 Level FlightAware UK
Sat 11:11:12 PM 53.0280 -7.1690 105° East 524 603 38,000  Climbing FlightAware ADS-B
Sat 11:11:36 PM 53.0098 -7.0548 105° East 488 562 36,500  Descending FlightAware UK
Sat 11:11:52 PM 53.0020 -7.0100 105° East 523 602 38,000  Climbing FlightAware ADS-B
Sat 11:11:54 PM 52.9985 -6.9850 105° East 488 562 36,500 -4,500 Descending FlightAware UK
Sat 11:12:12 PM 52.9870 -6.9152 105° East 494 568 36,500  Level FlightAware UK
Sat 11:12:30 PM 52.9755 -6.8446 105° East 492 566 36,500 3,600 Level FlightAware UK
Sat 11:12:37 PM 52.9730 -6.8330 105° East 524 603 38,000  Climbing FlightAware ADS-B
Sat 11:12:54 PM 52.9603 -6.7523 105° East 496 571 36,500 -2,571 Descending FlightAware UK
Sat 11:13:12 PM 52.9487 -6.6817 105° East 500 575 36,500 3,913 Level FlightAware UK
Sat 11:13:17 PM 52.9480 -6.6820 105° East 522 601 38,000  Climbing FlightAware ADS-B
Sat 11:13:42 PM 52.9294 -6.5658 105° East 498 573 36,500 -2,093 Descending FlightAware UK
Sat 11:14:00 PM 52.9180 -6.4967 105° East 490 564 36,500 4,500 Level FlightAware UK
Sat 11:14:02 PM 52.9190 -6.5060 105° East 516 594 38,000  Climbing FlightAware ADS-B
Sat 11:14:18 PM 52.9067 -6.4290 105° East 488 562 36,500 -2,647 Descending FlightAware UK
Sat 11:14:36 PM 52.8952 -6.3605 106° East 488 562 36,500 3,750 Level FlightAware UK
Sat 11:14:42 PM 52.8940 -6.3540 106° East 517 595 38,000  Climbing FlightAware ADS-B
Sat 11:15:01 PM 52.8796 -6.2681 106° East 484 557 36,500 -2,432 Descending FlightAware UK
Sat 11:15:19 PM 52.8679 -6.1993 106° East 494 568 36,500 4,286 Level FlightAware UK
Sat 11:15:22 PM 52.8680 -6.2010 106° East 518 596 38,000  Climbing FlightAware ADS-B
Sat 11:15:37 PM 52.8562 -6.1305 106° East 492 566 36,500 -2,308 Descending FlightAware UK
Sat 11:16:01 PM 52.8404 -6.0390 106° East 490 564 36,500 3,000 Level FlightAware UK
Sat 11:16:07 PM 52.8380 -6.0250 106° East 517 595 38,000  Climbing FlightAware ADS-B
Sat 11:16:31 PM 52.8210 -5.9245 106° East 488 562 36,500 -2,143 Descending FlightAware UK
Sat 11:16:49 PM 52.8089 -5.8553 106° East 490 564 36,500 4,286 Level FlightAware UK
Sat 11:16:52 PM 52.8090 -5.8570 106° East 520 598 38,000  Climbing FlightAware ADS-B
Sat 11:17:13 PM 52.7929 -5.7640 106° East 492 566 36,500 -2,308 Descending FlightAware UK
Sat 11:17:31 PM 52.7809 -5.6956 106° East 492 566 36,500 4,737 Level FlightAware UK
Sat 11:17:32 PM 52.7820 -5.7020 106° East 519 597 38,000  Climbing FlightAware ADS-B
Sat 11:17:49 PM 52.7689 -5.6274 106° East 488 562 36,500 -2,571 Descending FlightAware UK
Sat 11:18:07 PM 52.7570 -5.5592 106° East 488 562 36,500 3,214 Level FlightAware UK
Sat 11:18:17 PM 52.7520 -5.5340 106° East 518 596 38,000  Climbing FlightAware ADS-B
Sat 11:18:37 PM 52.7367 -5.4443 106° East 488 562 36,500 -2,368 Descending FlightAware UK
Sat 11:18:55 PM 52.7245 -5.3757 106° East 488 562 36,500 4,500 Level FlightAware UK
Sat 11:18:57 PM 52.7260 -5.3820 106° East 518 596 38,000 12,857 Climbing FlightAware ADS-B
Sat 11:19:02 PM 52.7204 -5.3530 108° East 518 596 38,000 -4,091 Level FlightAware ADS-B
Sat 11:19:19 PM 52.7086 -5.2867 108° East 490 564 36,500 -2,571 Descending FlightAware UK
Sat 11:19:37 PM 52.6963 -5.2181 106° East 490 564 36,500 4,737 Level FlightAware UK
Sat 11:19:38 PM 52.6959 -5.2166 106° East 518 596 38,000  Climbing FlightAware ADS-B
Sat 11:20:01 PM 52.6802 -5.1285 106° East 492 566 36,500  Descending FlightAware UK
Sat 11:20:16 PM 52.6708 -5.0762 106° East 516 594 38,000  Climbing FlightAware ADS-B
Sat 11:20:31 PM 52.6597 -5.0154 106° East 486 559 36,500 -2,727 Descending FlightAware UK
Sat 11:20:49 PM 52.6476 -4.9482 107° East 488 562 36,500 2,903 Level FlightAware UK
Sat 11:21:02 PM 52.6410 -4.9130 107° East 512 589 38,000  Climbing FlightAware ADS-B
Sat 11:21:19 PM 52.6273 -4.8366 107° East 482 555 36,500  Descending FlightAware UK
Sat 11:21:31 PM 52.6193 -4.7936 107° East 513 590 38,000  Climbing FlightAware ADS-B
Sat 11:22:01 PM 52.5983 -4.6798 107° East 480 552 36,500  Descending FlightAware UK
Sat 11:22:04 PM 52.5972 -4.6737 107° East 513 590 38,000  Climbing FlightAware ADS-B
Sat 11:22:19 PM 52.5861 -4.6136 107° East 486 559 36,500  Descending FlightAware UK
Sat 11:22:34 PM 52.5761 -4.5598 107° East 514 592 38,000  Climbing FlightAware ADS-B
Sat 11:22:49 PM 52.5652 -4.5011 107° East 490 564 36,500  Descending FlightAware UK
Sat 11:23:06 PM 52.5538 -4.4407 107° East 514 592 38,000  Climbing FlightAware ADS-B
Sat 11:23:25 PM 52.5402 -4.3672 107° East 490 564 36,500  Descending FlightAware UK
Sat 11:23:37 PM 52.5326 -4.3281 107° East 512 589 38,000  Climbing FlightAware ADS-B
Sat 11:23:55 PM 52.5193 -4.2569 107° East 488 562 36,500  Descending FlightAware UK
Sat 11:24:07 PM 52.5114 -4.2157 107° East 511 588 38,000  Climbing FlightAware ADS-B
Sat 11:24:25 PM 52.4980 -4.1455 107° East 486 559 36,500  Descending FlightAware UK
Sat 11:24:38 PM 52.4897 -4.1022 107° East 511 588 38,000  Climbing FlightAware ADS-B
Sat 11:24:56 PM 52.4768 -4.0343 107° East 484 557 36,500  Descending FlightAware UK
Sat 11:25:08 PM 52.4683 -3.9900 107° East 511 588 38,000  Climbing FlightAware ADS-B
Sat 11:25:25 PM 52.4558 -3.9245 107° East 482 555 36,500  Descending FlightAware UK
Sat 11:25:39 PM 52.4466 -3.8771 107° East 514 592 38,000  Climbing FlightAware ADS-B
Sat 11:25:55 PM 52.4346 -3.8137 107° East 488 562 36,500  Descending FlightAware UK
Sat 11:26:10 PM 52.4244 -3.7626 107° East 513 590 38,000  Climbing FlightAware ADS-B
Sat 11:26:31 PM 52.4087 -3.6809 107° East 488 562 36,500  Descending FlightAware UK
Sat 11:26:40 PM 52.4028 -3.6512 107° East 513 590 38,000  Climbing FlightAware ADS-B
Sat 11:27:01 PM 52.3870 -3.5703 107° East 486 559 36,500  Descending FlightAware UK
Sat 11:27:10 PM 52.3811 -3.5400 107° East 513 590 38,000  Climbing FlightAware ADS-B
Sat 11:27:26 PM 52.3694 -3.4805 107° East 490 564 36,500  Descending FlightAware UK
Sat 11:27:40 PM 52.3594 -3.4299 107° East 512 589 38,000  Climbing FlightAware ADS-B
Sat 11:27:56 PM 52.3478 -3.3711 107° East 490 564 36,500  Descending FlightAware UK
Sat 11:28:11 PM 52.3372 -3.3179 107° East 510 587 38,000  Climbing FlightAware ADS-B
Sat 11:28:26 PM 52.3262 -3.2614 107° East 488 562 36,500  Descending FlightAware UK
Sat 11:28:42 PM 52.3145 -3.2042 107° East 508 585 38,000  Climbing FlightAware ADS-B
Sat 11:29:02 PM 52.2997 -3.1305 107° East 484 557 36,500  Descending FlightAware UK
Sat 11:29:16 PM 52.2899 -3.0819 107° East 508 585 38,000  Climbing FlightAware ADS-B
Sat 11:29:32 PM 52.2777 -3.0215 107° East 482 555 36,500  Descending FlightAware UK
Sat 11:29:47 PM 52.2672 -2.9692 107° East 508 585 38,000  Climbing FlightAware ADS-B
Sat 11:30:02 PM 52.2557 -2.9126 107° East 486 559 36,500  Descending FlightAware UK
Sat 11:30:19 PM 52.2435 -2.8522 107° East 509 586 38,000  Climbing FlightAware ADS-B
Sat 11:30:38 PM 52.2292 -2.7810 107° East 484 557 36,500  Descending FlightAware UK
Sat 11:30:54 PM 52.2176 -2.7246 107° East 508 585 38,000  Climbing FlightAware ADS-B
Sat 11:31:14 PM 52.2026 -2.6513 107° East 484 557 36,500  Descending FlightAware UK
Sat 11:31:26 PM 52.1939 -2.6096 107° East 508 585 38,000  Climbing FlightAware ADS-B
Sat 11:31:44 PM 52.1800 -2.5415 107° East 488 562 36,500  Descending FlightAware UK
Sat 11:31:56 PM 52.1712 -2.4999 107° East 507 583 38,000  Climbing FlightAware ADS-B
Sat 11:32:14 PM 52.1574 -2.4327 107° East 486 559 36,500  Descending FlightAware UK
Sat 11:32:26 PM 52.1487 -2.3911 107° East 506 582 38,000  Climbing FlightAware ADS-B
Sat 11:32:44 PM 52.1350 -2.3242 107° East 484 557 36,500  Descending FlightAware UK
Sat 11:32:59 PM 52.1240 -2.2728 107° East 505 581 38,000 1,957 Climbing FlightAware ADS-B
Sat 11:33:30 PM 52.1012 -2.1640 109° East 504 580 38,000 -1,765 Level FlightAware ADS-B
Sat 11:33:50 PM 52.0855 -2.0890 109° East 486 559 36,500  Descending FlightAware UK
Sat 11:34:00 PM 52.0785 -2.0563 109° East 503 579 38,000  Climbing FlightAware ADS-B
Sat 11:34:20 PM 52.0627 -1.9815 109° East 482 555 36,500  Descending FlightAware UK
Sat 11:34:30 PM 52.0556 -1.9489 109° East 503 579 38,000  Climbing FlightAware ADS-B
Sat 11:34:45 PM 52.0444 -1.8955 109° East 478 550 36,500  Descending FlightAware UK
Sat 11:35:00 PM 52.0328 -1.8422 109° East 503 579 38,000  Climbing FlightAware ADS-B
Sat 11:35:27 PM 52.0123 -1.7463 109° East 482 555 36,500  Descending FlightAware UK
Sat 11:35:31 PM 52.0096 -1.7341 109° East 503 579 38,000  Climbing FlightAware ADS-B
Sat 11:35:51 PM 51.9939 -1.6610 109° East 482 555 36,500  Descending FlightAware UK
Sat 11:36:01 PM 51.9861 -1.6254 109° East 503 579 38,000  Climbing FlightAware ADS-B
Sat 11:36:21 PM 51.9705 -1.5531 109° East 482 555 36,500  Descending FlightAware UK
Sat 11:36:32 PM 51.9627 -1.5174 109° East 504 580 38,000  Climbing FlightAware ADS-B
Sat 11:36:50 PM 51.9478 -1.4487 109° East 482 555 36,500  Descending FlightAware UK
Sat 11:37:02 PM 51.9389 -1.4081 109° East 504 580 38,000  Climbing FlightAware ADS-B
Sat 11:37:21 PM 51.9243 -1.3408 109° East 484 557 36,500  Descending FlightAware UK
Sat 11:37:32 PM 51.9156 -1.3018 109° East 504 580 38,000  Climbing FlightAware ADS-B
Sat 11:37:51 PM 51.9008 -1.2346 109° East 486 559 36,500  Descending FlightAware UK
Sat 11:38:03 PM 51.8920 -1.1948 109° East 503 579 38,000  Climbing FlightAware ADS-B
Sat 11:38:21 PM 51.8774 -1.1285 109° East 482 555 36,500  Descending FlightAware UK
Sat 11:38:33 PM 51.8686 -1.0890 109° East 503 579 38,000  Climbing FlightAware ADS-B
Sat 11:38:51 PM 51.8537 -1.0220 109° East 484 557 36,500  Descending FlightAware UK
Sat 11:39:03 PM 51.8448 -0.9819 109° East 503 579 38,000  Climbing FlightAware ADS-B
Sat 11:39:27 PM 51.8252 -0.8947 109° East 482 555 36,500  Descending FlightAware UK
Sat 11:39:33 PM 51.8212 -0.8763 109° East 502 578 38,000  Climbing FlightAware ADS-B
Sat 11:39:51 PM 51.8065 -0.8111 109° East 482 555 36,500  Descending FlightAware UK
Sat 11:40:04 PM 51.7971 -0.7688 109° East 502 578 38,000  Climbing FlightAware ADS-B
Sat 11:40:21 PM 51.7824 -0.7045 109° East 484 557 36,500  Descending FlightAware UK
Sat 11:40:34 PM 51.7729 -0.6614 109° East 501 577 38,000  Climbing FlightAware ADS-B
Sat 11:40:51 PM 51.7589 -0.6000 109° East 484 557 36,500  Descending FlightAware UK
Sat 11:41:05 PM 51.7488 -0.5558 109° East 501 577 38,000  Climbing FlightAware ADS-B
Sat 11:41:27 PM 51.7302 -0.4742 109° East 488 562 36,500  Descending FlightAware UK
Sat 11:41:35 PM 51.7245 -0.4492 109° East 499 574 38,000  Climbing FlightAware ADS-B
Sat 11:41:51 PM 51.7110 -0.3907 109° East 488 562 36,500  Descending FlightAware UK
Sat 11:42:05 PM 51.7003 -0.3439 109° East 497 572 38,000  Climbing FlightAware ADS-B
Sat 11:42:21 PM 51.6871 -0.2866 109° East 484 557 36,500  Descending FlightAware UK
Sat 11:42:36 PM 51.6762 -0.2396 109° East 495 570 38,000  Climbing FlightAware ADS-B
Sat 11:42:58 PM 51.6582 -0.1619 109° East 482 555 36,500  Descending FlightAware UK
Sat 11:43:06 PM 51.6519 -0.1350 109° East 495 570 38,000  Climbing FlightAware ADS-B
Sat 11:43:21 PM 51.6391 -0.0802 109° East 486 559 36,500  Descending FlightAware UK
Sat 11:43:36 PM 51.6278 -0.0311 109° East 495 570 38,000  Climbing FlightAware ADS-B
Sat 11:43:52 PM 51.6150 0.0236 109° East 486 559 36,500  Descending FlightAware UK
Sat 11:44:06 PM 51.6036 0.0725 109° East 493 567 38,000  Climbing FlightAware ADS-B
Sat 11:44:28 PM 51.5862 0.1469 109° East 484 557 36,500  Descending FlightAware UK
Sat 11:44:37 PM 51.5789 0.1778 109° East 493 567 38,000  Climbing FlightAware ADS-B
Sat 11:44:52 PM 51.5667 0.2295 109° East 482 555 36,500  Descending FlightAware UK
Sat 11:45:08 PM 51.5544 0.2815 109° East 492 566 38,000  Climbing FlightAware ADS-B
Sat 11:45:34 PM 51.5330 0.3719 109° East 480 552 36,500  Descending FlightAware UK
Sat 11:45:38 PM 51.5300 0.3843 109° East 493 567 38,000  Climbing FlightAware ADS-B
Sat 11:45:58 PM 51.5133 0.4542 109° East 482 555 36,500  Descending FlightAware UK
Sat 11:46:08 PM 51.5052 0.4879 109° East 493 567 38,000  Climbing FlightAware ADS-B
Sat 11:46:28 PM 51.4886 0.5570 109° East 488 562 36,500  Descending FlightAware UK
Sat 11:46:39 PM 51.4807 0.5904 109° East 492 566 38,000  Climbing FlightAware ADS-B
Sat 11:47:04 PM 51.4593 0.6791 109° East 484 557 36,500  Descending FlightAware UK
Sat 11:47:09 PM 51.4556 0.6946 109° East 490 564 38,000  Climbing FlightAware ADS-B
Sat 11:47:34 PM 51.4349 0.7796 109° East 482 555 36,500  Descending FlightAware UK
Sat 11:47:40 PM 51.4308 0.7971 109° East 490 564 38,000  Climbing FlightAware ADS-B
Sat 11:47:58 PM 51.4154 0.8604 109° East 480 552 36,500  Descending FlightAware UK
Sat 11:48:10 PM 51.4057 0.9003 109° East 490 564 38,000  Climbing FlightAware ADS-B
Sat 11:48:28 PM 51.3908 0.9615 109° East 482 555 36,500  Descending FlightAware UK
Sat 11:48:40 PM 51.3809 1.0021 109° East 490 564 38,000  Climbing FlightAware ADS-B
Sat 11:48:58 PM 51.3660 1.0626 109° East 482 555 36,500  Descending FlightAware UK
Sat 11:49:11 PM 51.3559 1.1038 109° East 491 565 38,000  Climbing FlightAware ADS-B
Sat 11:49:28 PM 51.3411 1.1635 109° East 482 555 36,500  Descending FlightAware UK
Sat 11:49:41 PM 51.3307 1.2056 109° East 492 566 38,000  Climbing FlightAware ADS-B
Sat 11:49:58 PM 51.3161 1.2646 109° East 482 555 36,500  Descending FlightAware UK
Sat 11:50:11 PM 51.3056 1.3074 109° East 492 566 38,000  Climbing FlightAware ADS-B
Sat 11:50:28 PM 51.2911 1.3665 109° East 486 559 36,500  Descending FlightAware UK
Sat 11:50:35 PM 51.2859 1.3876 109° East 492 566 38,000  Climbing FlightAware ADS-B
Sat 11:50:52 PM 51.2730 1.4477 109° East 484 557 36,500 -2,571 Descending FlightAware UK
Sat 11:51:10 PM 51.2608 1.5105 107° East 484 557 36,500 4,500 Level FlightAware UK
Sat 11:51:12 PM 51.2602 1.5157 107° East 492 566 38,000  Climbing FlightAware ADS-B
Sat 11:51:28 PM 51.2497 1.5724 107° East 484 557 36,500 -2,647 Descending FlightAware UK
Sat 11:51:46 PM 51.2391 1.6353 105° East 484 557 36,500 3,750 Level FlightAware UK
Sat 11:51:52 PM 51.2380 1.6470 105° East 492 566 38,000 5,000 Climbing FlightAware ADS-B
Sat 11:52:04 PM 51.2296 1.6973 105° East 492 566 38,000 -3,000 Level FlightAware ADS-B
Sat 11:52:22 PM 51.2191 1.7616 105° East 482 555 36,500  Descending FlightAware UK
Sat 11:52:34 PM 51.2125 1.8040 105° East 493 567 38,000  Climbing FlightAware ADS-B
Sat 11:52:58 PM 51.1992 1.8880 105° East 480 552 36,500  Descending FlightAware UK
Sat 11:53:07 PM 51.1941 1.9199 105° East 493 567 38,000  Climbing FlightAware ADS-B
Sat 11:53:22 PM 51.1857 1.9723 105° East 478 550 36,500  Descending FlightAware UK
Sat 11:53:42 PM 51.1747 2.0416 105° East 496 571 38,000  Climbing FlightAware ADS-B
Sat 11:53:58 PM 51.1652 2.0994 105° East 478 550 36,500  Descending FlightAware UK
Sat 11:54:15 PM 51.1560 2.1573 105° East 497 572 38,000  Climbing FlightAware ADS-B
Sat 11:54:34 PM 51.1446 2.2256 105° East 482 555 36,500  Descending FlightAware UK
Sat 11:54:46 PM 51.1382 2.2660 105° East 497 572 38,000  Climbing FlightAware ADS-B
Sat 11:55:04 PM 51.1270 2.3331 105° East 490 564 36,500  Descending FlightAware UK
Sat 11:55:17 PM 51.1198 2.3773 105° East 496 571 38,000  Climbing FlightAware ADS-B
Sat 11:55:34 PM 51.1098 2.4383 105° East 488 562 36,500 -2,195 Descending FlightAware UK
Sat 11:55:58 PM 51.0955 2.5240 105° East 488 562 36,500 3,214 Level FlightAware UK
Sat 11:56:02 PM 51.0950 2.5280 105° East 492 566 38,000  Climbing FlightAware ADS-B
Sat 11:56:22 PM 51.0813 2.6077 105° East 486 559 36,500 -2,368 Descending FlightAware UK
Sat 11:56:40 PM 51.0707 2.6702 105° East 486 559 36,500 4,500 Level FlightAware UK
Sat 11:56:42 PM 51.0730 2.6550 105° East 490 564 38,000  Climbing FlightAware ADS-B
Sat 11:57:04 PM 51.0566 2.7534 105° East 484 557 36,500 -2,250 Descending FlightAware UK
Sat 11:57:22 PM 51.0458 2.8155 105° East 484 557 36,500 3,913 Level FlightAware UK
Sat 11:57:27 PM 51.0460 2.8170 105° East 490 564 38,000  Climbing FlightAware ADS-B
Sat 11:57:47 PM 51.0315 2.8991 105° East 484 557 36,500 -2,368 Descending FlightAware UK
Sat 11:58:05 PM 51.0207 2.9612 105° East 484 557 36,500 3,600 Level FlightAware UK
Sat 11:58:12 PM 51.0190 2.9720 105° East 490 564 38,000  Climbing FlightAware ADS-B
Sat 11:58:29 PM 51.0062 3.0441 105° East 484 557 36,500 -2,571 Descending FlightAware UK
Sat 11:58:47 PM 50.9953 3.1063 106° East 484 557 36,500 3,913 Level FlightAware UK
Sat 11:58:52 PM 50.9970 3.0990 106° East 491 565 38,000  Climbing FlightAware ADS-B
Sat 11:59:10 PM 50.9809 3.1886 106° East 486 559 36,500 -2,432 Descending FlightAware UK
Sat 11:59:29 PM 50.9697 3.2524 105° East 488 562 36,500 4,091 Level FlightAware UK
Sat 11:59:32 PM 50.9700 3.2510 105° East 492 566 38,000  Climbing FlightAware ADS-B
Sat 11:59:47 PM 50.9589 3.3140 105° East 486 559 36,500 -2,727 Descending FlightAware UK
Sun 12:00:05 AM 50.9480 3.3771 105° East 488 562 36,500 3,000 Level FlightAware UK
Sun 12:00:17 AM 50.9430 3.4070 105° East 491 565 38,000  Climbing FlightAware ADS-B
Sun 12:00:47 AM 50.9224 3.5226 105° East 486 559 36,500  Descending FlightAware UK
Sun 12:00:57 AM 50.9180 3.5440 105° East 491 565 38,000  Climbing FlightAware ADS-B
Sun 12:01:17 AM 50.9036 3.6260 105° East 486 559 36,500 -2,368 Descending FlightAware UK
Sun 12:01:35 AM 50.8924 3.6882 106° East 486 559 36,500 3,600 Level FlightAware UK
Sun 12:01:42 AM 50.8910 3.6990 106° East 491 565 38,000  Climbing FlightAware ADS-B
Sun 12:02:05 AM 50.8738 3.7919 106° East 490 564 36,500  Descending FlightAware UK
Sun 12:02:22 AM 50.8650 3.8400 106° East 491 565 38,000  Climbing FlightAware ADS-B
Sun 12:02:23 AM 50.8625 3.8541 106° East 490 564 36,500 -4,737 Descending FlightAware UK
Sun 12:02:41 AM 50.8514 3.9161 106° East 492 566 36,500  Level FlightAware UK
Sun 12:02:59 AM 50.8401 3.9781 106° East 488 562 36,500 4,286 Level FlightAware UK
Sun 12:03:02 AM 50.8400 3.9760 106° East 489 563 38,000  Climbing FlightAware ADS-B
Sun 12:03:17 AM 50.8289 4.0399 106° East 490 564 36,500 -2,727 Descending FlightAware UK
Sun 12:03:35 AM 50.8174 4.1014 106° East 490 564 36,500 3,000 Level FlightAware UK
Sun 12:03:47 AM 50.8120 4.1300 106° East 488 562 38,000  Climbing FlightAware ADS-B
Sun 12:04:05 AM 50.7984 4.2037 106° East 492 566 36,500 -2,500 Descending FlightAware UK
Sun 12:04:23 AM 50.7873 4.2651 106° East 492 566 36,500 4,091 Level FlightAware UK
Sun 12:04:27 AM 50.7870 4.2670 106° East 485 558 38,000  Climbing FlightAware ADS-B
Sun 12:04:47 AM 50.7722 4.3472 106° East 488 562 36,500 -2,368 Descending FlightAware UK
Sun 12:05:05 AM 50.7610 4.4081 106° East 488 562 36,500 3,600 Level FlightAware UK
Sun 12:05:12 AM 50.7590 4.4180 106° East 484 557 38,000  Climbing FlightAware ADS-B
Sun 12:05:29 AM 50.7459 4.4892 106° East 488 562 36,500 -2,571 Descending FlightAware UK
Sun 12:05:47 AM 50.7345 4.5501 106° East 488 562 36,500 3,913 Level FlightAware UK
Sun 12:05:52 AM 50.7330 4.5560 106° East 483 556 38,000  Climbing FlightAware ADS-B
Sun 12:06:11 AM 50.7195 4.6314 106° East 488 562 36,500 -2,432 Descending FlightAware UK
Sun 12:06:29 AM 50.7080 4.6922 107° East 486 559 36,500 4,286 Level FlightAware UK
Sun 12:06:32 AM 50.7080 4.6880 107° East 483 556 38,000  Climbing FlightAware ADS-B
Sun 12:06:47 AM 50.6966 4.7530 107° East 486 559 36,500  Descending FlightAware UK
Sun 12:07:07 AM 50.6850 4.8090 107° East 483 556 38,000 1,125 Climbing FlightAware ADS-B
Sun 12:08:07 AM 50.6480 5.0020 107° East 482 555 38,000  Level FlightAware ADS-B
Sun 12:08:47 AM 50.6220 5.1360 107° East 483 556 38,000  Level FlightAware ADS-B
Sun 12:09:37 AM 50.5890 5.3050 107° East 480 552 38,000 -333 Level FlightAware ADS-B
Sun 12:10:17 AM 50.5640 5.4310 107° East 489 563 37,500 -1,425 Descending FlightAware ADS-B
Sun 12:10:57 AM 50.5380 5.5640 107° East 484 557 36,100 -2,400 Descending FlightAware ADS-B
Sun 12:11:42 AM 50.5070 5.7180 108° East 471 542 34,100 -2,965 Descending FlightAware ADS-B
Sun 12:12:22 AM 50.4780 5.8610 108° East 479 551 31,900 -3,035 Descending FlightAware ADS-B
Sun 12:13:07 AM 50.4490 6.0040 108° East 476 548 29,800 -2,894 Descending FlightAware ADS-B
Sun 12:13:47 AM 50.4220 6.1380 108° East 492 566 27,800 -3,000 Descending FlightAware ADS-B
Sun 12:14:27 AM 50.3930 6.2800 108° East 488 562 25,800 -2,240 Descending FlightAware ADS-B
Sun 12:15:02 AM 50.3680 6.3990 108° East 483 556 25,000 -1,694 Descending FlightAware ADS-B
Sun 12:15:52 AM 50.3370 6.5560 107° East 482 555 23,400 -1,867 Descending FlightAware ADS-B
Sun 12:16:32 AM 50.3130 6.6810 107° East 471 542 22,200 -1,976 Descending FlightAware ADS-B
Sun 12:17:17 AM 50.2830 6.8330 107° East 455 524 20,600 -2,067 Descending FlightAware ADS-B
Sun 12:18:02 AM 50.2550 6.9760 107° East 448 516 19,100 -2,047 Descending FlightAware ADS-B
Sun 12:18:42 AM 50.2310 7.0960 107° East 443 510 17,700 -2,021 Descending FlightAware ADS-B
Sun 12:19:37 AM 50.1970 7.2660 107° East 435 501 15,900 -1,958 Descending FlightAware ADS-B
Sun 12:20:17 AM 50.1720 7.3860 108° East 428 493 14,600 -1,906 Descending FlightAware ADS-B
Sun 12:21:02 AM 50.1460 7.5160 107° East 411 473 13,200 -1,148 Descending FlightAware ADS-B
Sun 12:22:12 AM 50.0860 7.6840 119° Southeast 362 417 12,400 -857 Descending FlightAware ADS-B
Sun 12:22:47 AM 50.0520 7.7460 130° Southeast 343 395 11,700 -1,091 Descending FlightAware ADS-B
Sun 12:23:07 AM 50.0250 7.7840 138° Southeast 323 372 11,400 -831 Descending FlightAware ADS-B
Sun 12:23:52 AM 49.9650 7.8170 161° South 305 351 10,800 -918 Descending FlightAware ADS-B
Sun 12:24:32 AM 49.9130 7.8440 162° South 273 314 10,100 -1,091 Descending FlightAware ADS-B
Sun 12:24:47 AM 49.8960 7.8600 149° Southeast 259 298 9,800 -1,200 Descending FlightAware ADS-B
Sun 12:24:57 AM 49.8900 7.8710 130° Southeast 254 292 9,600 -1,440 Descending FlightAware ADS-B
Sun 12:25:12 AM 49.8850 7.8970 107° East 250 288 9,200 -1,600 Descending FlightAware ADS-B
Sun 12:25:57 AM 49.8900 7.9680 84° East 247 284 8,000 -1,457 Descending FlightAware ADS-B
Sun 12:26:22 AM 49.9010 8.0110 68° East 235 270 7,500 -1,091 Descending FlightAware ADS-B
Sun 12:26:52 AM 49.9120 8.0570 70° East 219 252 7,000 -1,100 Descending FlightAware ADS-B
Sun 12:27:22 AM 49.9220 8.0990 70° East 202 232 6,400 -1,309 Descending FlightAware ADS-B
Sun 12:27:47 AM 49.9300 8.1330 70° East 196 226 5,800 -1,200 Descending FlightAware ADS-B
Sun 12:28:02 AM 49.9350 8.1520 68° East 187 215 5,600 -933 Descending FlightAware ADS-B
Sun 12:28:32 AM 49.9440 8.1880 69° East 168 193 5,100 -982 Descending FlightAware ADS-B
Sun 12:28:57 AM 49.9510 8.2150 68° East 160 184 4,700 -982 Descending FlightAware ADS-B
Sun 12:29:27 AM 49.9580 8.2470 71° East 151 174 4,200 -982 Descending FlightAware ADS-B
Sun 12:29:52 AM 49.9650 8.2720 66° East 150 173 3,800 -873 Descending FlightAware ADS-B
Sun 12:30:22 AM 49.9720 8.3020 70° East 151 174 3,400 -800 Descending FlightAware ADS-B
Sun 12:30:52 AM 49.9790 8.3330 71° East 149 171 3,000 -900 Descending FlightAware ADS-B
Sun 12:31:02 AM 49.9820 8.3430 65° Northeast 147 169 2,800 -900 Descending FlightAware ADS-B
Sun 12:31:32 AM 49.9890 8.3720 69° East 137 158 2,400 -700 Descending FlightAware ADS-B
Sun 12:32:02 AM 49.9950 8.3990 71° East 127 146 2,100 -600 Descending FlightAware ADS-B
Sun 12:32:12 AM 49.9970 8.4050 63° Northeast 126 145 2,000 -750 Descending FlightAware ADS-B
Sun 12:32:42 AM 50.0060 8.4300 61° Northeast 123 142 1,600 -436 Descending FlightAware ADS-B
Sun 12:33:07 AM 50.0130 8.4460 56° Northeast 123 142 1,600  Level FlightAware ADS-B

Login

Don't have an account? Register now (free) for customized features, flight alerts, and more!